Time;durP1;ratioP1;P1;durP2;ratioP2;P2;SDS_P1;SDS_P2;PMS_P1;PMS_P2;Temp;Humidity;BMP_temperature;BMP_pressure;BME280_temperature;BME280_humidity;BME280_pressure;Samples;Min_cycle;Max_cycle;Signal;HPM_P1;HPM_P2
2022/06/09 00:12:07;;;;;;;27.40;15.30;;;;;;;17.55;99.24;99781.53;712273;1177;116249;-74
2022/06/09 00:27:10;;;;;;;23.93;15.17;;;;;;;17.32;99.27;99782.59;712593;1180;115375;-75
2022/06/09 00:42:12;;;;;;;21.65;15.68;;;;;;;17.21;99.93;99783.93;712260;1177;115972;-74
2022/06/09 00:57:34;;;;;;;21.57;15.20;;;;;;;17.32;100.00;99782.59;712054;1179;115629;-75
2022/06/09 01:12:42;;;;;;;22.55;15.60;;;;;;;17.34;100.00;99796.48;712182;1178;115525;-74
2022/06/09 01:27:54;;;;;;;22.35;15.10;;;;;;;17.35;100.00;99781.38;712243;1177;115150;-74
2022/06/09 01:42:58;;;;;;;27.83;16.20;;;;;;;17.33;100.00;99770.14;712259;1179;115721;-74
2022/06/09 01:58:03;;;;;;;23.95;14.90;;;;;;;18.32;95.73;99786.88;712374;1177;116224;-74
2022/06/09 02:13:13;;;;;;;22.50;14.60;;;;;;;18.37;95.01;99785.28;712169;1180;115353;-74
2022/06/09 02:28:15;;;;;;;22.50;15.80;;;;;;;17.53;100.00;99794.98;712247;1177;116098;-74
2022/06/09 02:43:18;;;;;;;24.27;16.87;;;;;;;17.57;100.00;99795.42;712323;1178;116341;-74
2022/06/09 02:58:21;;;;;;;19.55;14.90;;;;;;;17.63;100.00;99797.28;712630;1177;116267;-74
2022/06/09 03:13:23;;;;;;;32.27;18.90;;;;;;;17.74;100.00;99795.95;712750;1177;116011;-75
2022/06/09 03:28:26;;;;;;;23.97;15.77;;;;;;;17.80;100.00;99790.69;712214;1180;115944;-73
2022/06/09 03:43:29;;;;;;;23.23;16.15;;;;;;;17.87;100.00;99792.55;712295;1179;115636;-73
2022/06/09 03:58:31;;;;;;;22.10;16.00;;;;;;;18.10;100.00;99790.45;712218;1177;116216;-73
2022/06/09 04:13:33;;;;;;;23.45;17.00;;;;;;;18.89;100.00;99798.94;712377;1177;115175;-72
2022/06/09 04:28:35;;;;;;;24.60;18.20;;;;;;;19.76;100.00;99782.98;712009;1178;116009;-73
2022/06/09 04:43:40;;;;;;;21.88;17.43;;;;;;;20.52;100.00;99775.38;712619;1178;115233;-73
2022/06/09 04:58:43;;;;;;;23.03;18.17;;;;;;;21.28;100.00;99773.64;712579;1177;116271;-73
2022/06/09 05:13:46;;;;;;;23.98;18.53;;;;;;;21.42;100.00;99769.02;712846;1177;115513;-74
2022/06/09 05:28:48;;;;;;;20.50;15.80;;;;;;;21.49;100.00;99766.29;712776;1179;114571;-73
2022/06/09 05:59:13;;;;;;;20.33;17.17;;;;;;;21.44;100.00;99785.64;712790;1180;114630;-77
2022/06/09 06:14:17;;;;;;;21.10;17.50;;;;;;;21.64;100.00;99787.31;715241;1177;116010;-74
2022/06/09 06:29:23;;;;;;;21.05;15.60;;;;;;;21.71;100.00;99806.76;712568;1177;116072;-74
2022/06/09 06:44:26;;;;;;;17.20;13.70;;;;;;;22.36;100.00;99800.11;713018;1178;116192;-87
2022/06/09 06:59:28;;;;;;;17.80;14.07;;;;;;;22.84;100.00;99805.65;712222;1178;115048;-78
2022/06/09 07:14:31;;;;;;;12.20;10.00;;;;;;;23.84;100.00;99838.84;713189;1180;115070;-79
2022/06/09 07:29:33;;;;;;;11.40;10.00;;;;;;;24.05;100.00;99840.14;713047;1178;116139;-78
2022/06/09 07:44:39;;;;;;;11.88;10.40;;;;;;;23.86;99.68;99865.39;712734;1178;116085;-77
2022/06/09 07:59:43;;;;;;;12.40;9.90;;;;;;;24.14;99.63;99867.39;712798;1180;115649;-77
2022/06/09 08:14:45;;;;;;;11.07;9.20;;;;;;;24.75;98.68;99862.47;714197;1180;114746;-77
2022/06/09 08:29:48;;;;;;;8.03;7.13;;;;;;;25.03;95.77;99828.63;713223;1177;115390;-76
2022/06/09 08:44:57;;;;;;;7.38;6.60;;;;;;;25.56;92.89;99831.94;713769;1179;114221;-77
2022/06/09 09:00:00;;;;;;;;;;;;;;;26.92;89.65;99811.82;714199;1179;115136;-75
2022/06/09 09:15:41;;;;;;;7.03;5.05;;;;;;;27.72;88.49;99811.91;714173;1180;101695;-76
2022/06/09 09:31:23;;;;;;;6.63;5.93;;;;;;;28.08;85.98;99822.08;713189;1180;114233;-77
2022/06/09 09:46:34;;;;;;;6.35;5.45;;;;;;;28.53;82.78;99822.50;713423;1177;115206;-76
2022/06/09 10:17:36;;;;;;;8.63;7.73;;;;;;;26.12;90.49;99823.05;712482;1179;115753;-81
2022/06/09 10:33:10;;;;;;;;;;;;;;;26.26;95.12;99836.91;712430;1178;115051;-77
2022/06/09 11:03:47;;;;;;;8.13;7.33;;;;;;;28.54;90.37;99822.23;712684;1178;114335;-81
2022/06/09 11:19:41;;;;;;;6.40;5.80;;;;;;;29.75;86.20;99797.69;713960;1177;115818;-82
2022/06/09 11:35:04;;;;;;;7.07;5.30;;;;;;;28.46;80.43;99824.66;715366;1177;115767;-81
2022/06/09 11:50:08;;;;;;;8.10;5.30;;;;;;;27.56;82.85;99835.25;713986;1180;115780;-80
2022/06/09 12:05:35;;;;;;;9.45;6.10;;;;;;;26.69;83.78;99856.77;713316;1178;114064;-80
2022/06/09 12:20:48;;;;;;;3.10;2.80;;;;;;;23.51;84.00;99909.02;713054;1180;114922;-76
2022/06/09 12:35:53;;;;;;;8.20;3.47;;;;;;;23.38;89.97;99918.87;712302;1179;115578;-75
2022/06/09 12:50:56;;;;;;;8.05;4.25;;;;;;;23.27;96.23;99884.89;712567;1180;114341;-82
2022/06/09 13:06:23;;;;;;;4.57;2.10;;;;;;;23.61;99.16;99885.19;713190;1177;115625;-82
2022/06/09 13:21:33;;;;;;;3.55;2.70;;;;;;;24.84;100.00;99881.68;712986;1177;114878;-82
2022/06/09 13:36:55;;;;;;;6.43;4.83;;;;;;;25.68;97.85;99896.30;712676;1180;114958;-81
2022/06/09 13:52:05;;;;;;;8.85;5.48;;;;;;;27.90;94.21;99926.54;712864;1178;115951;-79
2022/06/09 14:07:24;;;;;;;3.37;3.03;;;;;;;28.98;90.57;99934.38;712977;1178;115362;-79
2022/06/09 14:22:26;;;;;;;5.27;3.67;;;;;;;29.02;85.83;99905.77;717171;1179;115089;-78
2022/06/09 14:37:29;;;;;;;3.50;3.05;;;;;;;27.75;85.88;99896.79;713617;1179;114805;-79
2022/06/09 14:52:32;;;;;;;5.50;3.75;;;;;;;27.43;87.75;99896.83;712707;1177;115317;-79
2022/06/09 15:07:34;;;;;;;4.65;3.80;;;;;;;27.35;89.67;99890.80;712832;1180;114181;-79
2022/06/09 15:22:37;;;;;;;6.87;4.50;;;;;;;28.70;89.97;99877.09;712842;1178;114317;-79
2022/06/09 15:37:41;;;;;;;7.73;5.50;;;;;;;28.79;87.25;99887.37;712926;1177;115795;-81
2022/06/09 15:52:43;;;;;;;7.27;4.97;;;;;;;29.48;85.85;99869.08;712529;1180;115003;-81
2022/06/09 16:07:47;;;;;;;5.40;3.90;;;;;;;28.96;84.08;99893.33;712384;1179;115519;-81
2022/06/09 16:22:52;;;;;;;8.23;6.67;;;;;;;28.46;83.96;99913.66;712527;1180;114907;-80
2022/06/09 16:37:56;;;;;;;7.15;5.88;;;;;;;27.24;84.61;99932.98;712731;1179;115304;-81
2022/06/09 16:52:58;;;;;;;8.65;6.08;;;;;;;26.50;90.61;99928.08;712624;1178;115097;-81
2022/06/09 17:08:01;;;;;;;11.15;7.45;;;;;;;26.17;93.02;99924.42;712786;1177;114102;-81
2022/06/09 17:23:06;;;;;;;26.95;20.05;;;;;;;25.95;95.52;99929.73;712828;1180;114282;-82
2022/06/09 17:38:11;;;;;;;18.70;12.50;;;;;;;25.37;98.56;99933.38;712925;1178;114529;-84
2022/06/09 17:53:13;;;;;;;18.00;12.03;;;;;;;25.01;100.00;99946.11;713044;1177;114635;-83
2022/06/09 18:08:20;;;;;;;11.83;9.50;;;;;;;24.68;100.00;99958.34;712536;1180;115040;-83
2022/06/09 18:23:24;;;;;;;14.10;9.70;;;;;;;24.30;100.00;99991.80;712582;1177;114530;-82
2022/06/09 18:38:27;;;;;;;13.88;9.78;;;;;;;24.14;100.00;100009.39;712667;1179;114745;-80
2022/06/09 18:53:31;;;;;;;18.75;11.18;;;;;;;23.93;100.00;100005.41;712368;1179;114830;-81
2022/06/09 19:08:35;;;;;;;21.25;12.35;;;;;;;23.66;100.00;100032.53;712643;1178;116032;-84
2022/06/09 19:23:37;;;;;;;15.05;9.80;;;;;;;23.33;100.00;100097.22;712648;1179;115655;-82
2022/06/09 19:38:40;;;;;;;13.10;9.40;;;;;;;22.81;100.00;100159.85;713027;1180;115248;-82
2022/06/09 19:53:43;;;;;;;14.23;8.65;;;;;;;22.37;100.00;100110.86;712587;1177;116126;-82
2022/06/09 20:08:46;;;;;;;12.80;9.47;;;;;;;22.19;100.00;100124.95;712857;1180;116114;-80
2022/06/09 20:23:49;;;;;;;11.03;8.70;;;;;;;22.18;100.00;100121.44;713985;1178;115252;-80
2022/06/09 20:38:53;;;;;;;12.80;9.40;;;;;;;22.21;100.00;100102.33;714034;1177;114805;-81
2022/06/09 20:53:59;;;;;;;17.15;10.13;;;;;;;22.15;100.00;100103.19;713782;1179;116079;-81
2022/06/09 21:09:03;;;;;;;11.03;8.77;;;;;;;21.84;100.00;100128.85;714092;1180;116084;-81
2022/06/09 21:24:06;;;;;;;10.00;7.40;;;;;;;21.84;100.00;100150.21;713976;1178;114981;-81
2022/06/09 21:39:09;;;;;;;12.78;9.63;;;;;;;21.50;100.00;100207.36;714185;1177;116295;-83
2022/06/09 21:54:11;;;;;;;11.63;8.93;;;;;;;21.52;100.00;100210.65;714536;1177;116068;-81
2022/06/09 22:09:14;;;;;;;10.20;8.47;;;;;;;21.31;100.00;100268.55;714059;1179;114581;-80
2022/06/09 22:24:17;;;;;;;10.23;8.25;;;;;;;21.23;100.00;100263.43;713948;1179;116129;-80
2022/06/09 22:39:19;;;;;;;10.90;8.35;;;;;;;21.14;100.00;100236.14;714802;1178;116168;-81
2022/06/09 22:54:21;;;;;;;17.15;10.20;;;;;;;21.23;100.00;100239.42;714452;1180;115813;-81
2022/06/09 23:09:24;;;;;;;12.95;8.85;;;;;;;21.12;100.00;100227.54;713686;1179;114861;-80
2022/06/09 23:24:26;;;;;;;12.47;9.37;;;;;;;21.05;100.00;100162.70;713655;1180;116228;-80
2022/06/09 23:39:28;;;;;;;8.53;5.80;;;;;;;20.68;100.00;100188.94;713930;1177;115276;-81
2022/06/09 23:54:32;;;;;;;8.78;6.88;;;;;;;20.51;100.00;100140.55;713924;1177;115574;-81
